sensor_id;sensor_type;location;lat;lon;timestamp;temperature;humidity
5560;DHT22;2803;47.916;8.074;2022-08-25T00:01:54;18.70;99.90
5560;DHT22;2803;47.916;8.074;2022-08-25T00:04:22;19.00;99.90
5560;DHT22;2803;47.916;8.074;2022-08-25T00:06:50;19.10;99.90
5560;DHT22;2803;47.916;8.074;2022-08-25T00:09:20;18.70;99.90
5560;DHT22;2803;47.916;8.074;2022-08-25T00:11:49;19.10;99.90
5560;DHT22;2803;47.916;8.074;2022-08-25T00:14:18;19.30;99.90
5560;DHT22;2803;47.916;8.074;2022-08-25T00:16:45;19.10;99.90
5560;DHT22;2803;47.916;8.074;2022-08-25T00:19:15;19.00;99.90
5560;DHT22;2803;47.916;8.074;2022-08-25T00:21:44;19.20;99.90
5560;DHT22;2803;47.916;8.074;2022-08-25T00:24:12;19.40;99.90
5560;DHT22;2803;47.916;8.074;2022-08-25T00:26:40;19.30;99.90
5560;DHT22;2803;47.916;8.074;2022-08-25T00:29:07;19.40;99.90
5560;DHT22;2803;47.916;8.074;2022-08-25T00:31:34;19.40;99.90
5560;DHT22;2803;47.916;8.074;2022-08-25T00:34:01;19.30;99.90
5560;DHT22;2803;47.916;8.074;2022-08-25T00:36:27;19.70;99.90
5560;DHT22;2803;47.916;8.074;2022-08-25T00:38:55;19.00;99.90
5560;DHT22;2803;47.916;8.074;2022-08-25T00:41:23;18.90;99.90
5560;DHT22;2803;47.916;8.074;2022-08-25T00:43:54;19.10;99.90
5560;DHT22;2803;47.916;8.074;2022-08-25T00:46:24;19.50;99.90
5560;DHT22;2803;47.916;8.074;2022-08-25T00:48:55;19.70;99.90
5560;DHT22;2803;47.916;8.074;2022-08-25T00:51:28;19.80;99.90
5560;DHT22;2803;47.916;8.074;2022-08-25T00:53:57;19.60;99.90
5560;DHT22;2803;47.916;8.074;2022-08-25T00:56:24;19.90;99.90
5560;DHT22;2803;47.916;8.074;2022-08-25T00:58:52;19.70;99.90
5560;DHT22;2803;47.916;8.074;2022-08-25T01:01:19;19.90;99.90
5560;DHT22;2803;47.916;8.074;2022-08-25T01:03:45;20.10;99.90
5560;DHT22;2803;47.916;8.074;2022-08-25T01:06:12;20.00;99.90
5560;DHT22;2803;47.916;8.074;2022-08-25T01:08:39;20.10;99.90
5560;DHT22;2803;47.916;8.074;2022-08-25T01:11:08;19.60;99.90
5560;DHT22;2803;47.916;8.074;2022-08-25T01:13:39;19.90;99.90
5560;DHT22;2803;47.916;8.074;2022-08-25T01:16:06;20.20;99.90
5560;DHT22;2803;47.916;8.074;2022-08-25T01:18:48;20.10;99.90
5560;DHT22;2803;47.916;8.074;2022-08-25T01:21:18;20.00;99.90
5560;DHT22;2803;47.916;8.074;2022-08-25T01:23:45;19.90;99.90
5560;DHT22;2803;47.916;8.074;2022-08-25T01:26:15;20.00;99.90
5560;DHT22;2803;47.916;8.074;2022-08-25T01:28:43;19.90;99.90
5560;DHT22;2803;47.916;8.074;2022-08-25T01:31:24;19.90;99.90
5560;DHT22;2803;47.916;8.074;2022-08-25T01:33:51;20.10;99.90
5560;DHT22;2803;47.916;8.074;2022-08-25T01:36:20;20.10;99.90
5560;DHT22;2803;47.916;8.074;2022-08-25T01:38:46;20.00;99.90
5560;DHT22;2803;47.916;8.074;2022-08-25T01:41:16;20.00;99.90
5560;DHT22;2803;47.916;8.074;2022-08-25T01:43:42;19.70;99.90
5560;DHT22;2803;47.916;8.074;2022-08-25T01:46:09;19.80;99.90
5560;DHT22;2803;47.916;8.074;2022-08-25T01:48:37;19.90;99.90
5560;DHT22;2803;47.916;8.074;2022-08-25T01:51:03;19.90;99.90
5560;DHT22;2803;47.916;8.074;2022-08-25T01:53:31;19.50;99.90
5560;DHT22;2803;47.916;8.074;2022-08-25T01:55:58;19.60;99.90
5560;DHT22;2803;47.916;8.074;2022-08-25T01:58:28;19.20;99.90
5560;DHT22;2803;47.916;8.074;2022-08-25T02:00:59;19.20;99.90
5560;DHT22;2803;47.916;8.074;2022-08-25T02:03:27;19.50;99.90
5560;DHT22;2803;47.916;8.074;2022-08-25T02:05:55;19.60;99.90
5560;DHT22;2803;47.916;8.074;2022-08-25T02:08:23;19.80;99.90
5560;DHT22;2803;47.916;8.074;2022-08-25T02:10:52;19.90;99.90
5560;DHT22;2803;47.916;8.074;2022-08-25T02:13:19;19.90;99.90
5560;DHT22;2803;47.916;8.074;2022-08-25T02:15:48;19.90;99.90
5560;DHT22;2803;47.916;8.074;2022-08-25T02:18:16;19.90;99.90
5560;DHT22;2803;47.916;8.074;2022-08-25T02:20:43;19.80;99.90
5560;DHT22;2803;47.916;8.074;2022-08-25T02:23:10;19.60;99.90
5560;DHT22;2803;47.916;8.074;2022-08-25T02:25:38;19.70;99.90
5560;DHT22;2803;47.916;8.074;2022-08-25T02:28:07;19.80;99.90
5560;DHT22;2803;47.916;8.074;2022-08-25T02:30:34;19.90;99.90
5560;DHT22;2803;47.916;8.074;2022-08-25T02:33:01;19.90;99.90
5560;DHT22;2803;47.916;8.074;2022-08-25T02:35:28;19.70;99.90
5560;DHT22;2803;47.916;8.074;2022-08-25T02:37:55;19.80;99.90
5560;DHT22;2803;47.916;8.074;2022-08-25T02:40:22;19.90;99.90
5560;DHT22;2803;47.916;8.074;2022-08-25T02:42:49;19.80;99.90
5560;DHT22;2803;47.916;8.074;2022-08-25T02:45:17;19.60;99.90
5560;DHT22;2803;47.916;8.074;2022-08-25T02:47:45;19.20;99.90
5560;DHT22;2803;47.916;8.074;2022-08-25T02:50:12;19.50;99.90
5560;DHT22;2803;47.916;8.074;2022-08-25T02:52:39;19.00;99.90
5560;DHT22;2803;47.916;8.074;2022-08-25T02:55:08;18.80;99.90
5560;DHT22;2803;47.916;8.074;2022-08-25T02:57:37;18.80;99.90
5560;DHT22;2803;47.916;8.074;2022-08-25T03:00:04;18.90;99.90
5560;DHT22;2803;47.916;8.074;2022-08-25T03:02:33;18.80;99.90
5560;DHT22;2803;47.916;8.074;2022-08-25T03:04:59;18.80;99.90
5560;DHT22;2803;47.916;8.074;2022-08-25T03:07:26;19.10;99.90
5560;DHT22;2803;47.916;8.074;2022-08-25T03:09:53;19.40;99.90
5560;DHT22;2803;47.916;8.074;2022-08-25T03:12:19;19.40;99.90
5560;DHT22;2803;47.916;8.074;2022-08-25T03:14:46;19.50;99.90
5560;DHT22;2803;47.916;8.074;2022-08-25T03:17:13;19.50;99.90
5560;DHT22;2803;47.916;8.074;2022-08-25T03:19:41;19.40;99.90
5560;DHT22;2803;47.916;8.074;2022-08-25T03:22:08;19.50;99.90
5560;DHT22;2803;47.916;8.074;2022-08-25T03:24:34;19.40;99.90
5560;DHT22;2803;47.916;8.074;2022-08-25T03:27:01;19.50;99.90
5560;DHT22;2803;47.916;8.074;2022-08-25T03:29:31;19.20;99.90
5560;DHT22;2803;47.916;8.074;2022-08-25T03:31:58;19.50;99.90
5560;DHT22;2803;47.916;8.074;2022-08-25T03:34:27;19.50;99.90
5560;DHT22;2803;47.916;8.074;2022-08-25T03:36:55;19.50;99.90
5560;DHT22;2803;47.916;8.074;2022-08-25T03:39:23;19.40;99.90
5560;DHT22;2803;47.916;8.074;2022-08-25T03:41:51;19.30;99.90
5560;DHT22;2803;47.916;8.074;2022-08-25T03:44:19;19.30;99.90
5560;DHT22;2803;47.916;8.074;2022-08-25T03:46:47;19.30;99.90
5560;DHT22;2803;47.916;8.074;2022-08-25T03:49:18;19.40;99.90
5560;DHT22;2803;47.916;8.074;2022-08-25T03:51:47;19.30;99.90
5560;DHT22;2803;47.916;8.074;2022-08-25T03:54:16;19.20;99.90
5560;DHT22;2803;47.916;8.074;2022-08-25T03:56:43;19.30;99.90
5560;DHT22;2803;47.916;8.074;2022-08-25T03:59:11;19.30;99.90
5560;DHT22;2803;47.916;8.074;2022-08-25T04:01:39;19.30;99.90
5560;DHT22;2803;47.916;8.074;2022-08-25T04:04:08;19.40;99.90
5560;DHT22;2803;47.916;8.074;2022-08-25T04:06:36;19.40;99.90
5560;DHT22;2803;47.916;8.074;2022-08-25T04:09:03;19.30;99.90
5560;DHT22;2803;47.916;8.074;2022-08-25T04:11:31;19.30;99.90
5560;DHT22;2803;47.916;8.074;2022-08-25T04:13:58;19.30;99.90
5560;DHT22;2803;47.916;8.074;2022-08-25T04:16:28;19.30;99.90
5560;DHT22;2803;47.916;8.074;2022-08-25T04:18:57;19.30;99.90
5560;DHT22;2803;47.916;8.074;2022-08-25T04:21:24;19.30;99.90
5560;DHT22;2803;47.916;8.074;2022-08-25T04:23:53;19.20;99.90
5560;DHT22;2803;47.916;8.074;2022-08-25T04:26:22;19.20;99.90
5560;DHT22;2803;47.916;8.074;2022-08-25T04:28:51;19.30;99.90
5560;DHT22;2803;47.916;8.074;2022-08-25T04:31:19;19.30;99.90
5560;DHT22;2803;47.916;8.074;2022-08-25T04:33:47;19.30;99.90
5560;DHT22;2803;47.916;8.074;2022-08-25T04:36:15;19.40;99.90
5560;DHT22;2803;47.916;8.074;2022-08-25T04:38:43;19.20;99.90
5560;DHT22;2803;47.916;8.074;2022-08-25T04:41:12;19.10;99.90
5560;DHT22;2803;47.916;8.074;2022-08-25T04:43:40;19.20;99.90
5560;DHT22;2803;47.916;8.074;2022-08-25T04:46:11;19.30;99.90
5560;DHT22;2803;47.916;8.074;2022-08-25T04:48:38;19.10;99.90
5560;DHT22;2803;47.916;8.074;2022-08-25T04:51:06;19.10;99.90
5560;DHT22;2803;47.916;8.074;2022-08-25T04:53:33;19.00;99.90
5560;DHT22;2803;47.916;8.074;2022-08-25T04:56:00;19.20;99.90
5560;DHT22;2803;47.916;8.074;2022-08-25T04:58:27;19.20;99.90
5560;DHT22;2803;47.916;8.074;2022-08-25T05:01:00;19.30;99.90
5560;DHT22;2803;47.916;8.074;2022-08-25T05:03:29;19.20;99.90
5560;DHT22;2803;47.916;8.074;2022-08-25T05:05:56;19.20;99.90
5560;DHT22;2803;47.916;8.074;2022-08-25T05:08:23;19.10;99.90
5560;DHT22;2803;47.916;8.074;2022-08-25T05:10:49;19.10;99.90
5560;DHT22;2803;47.916;8.074;2022-08-25T05:13:19;19.10;99.90
5560;DHT22;2803;47.916;8.074;2022-08-25T05:15:51;19.10;99.90
5560;DHT22;2803;47.916;8.074;2022-08-25T05:18:19;19.00;99.90
5560;DHT22;2803;47.916;8.074;2022-08-25T05:20:47;18.90;99.90
5560;DHT22;2803;47.916;8.074;2022-08-25T05:23:14;18.90;99.90
5560;DHT22;2803;47.916;8.074;2022-08-25T05:25:40;19.00;99.90
5560;DHT22;2803;47.916;8.074;2022-08-25T05:28:09;19.00;99.90
5560;DHT22;2803;47.916;8.074;2022-08-25T05:30:37;19.00;99.90
5560;DHT22;2803;47.916;8.074;2022-08-25T05:33:04;19.10;99.90
5560;DHT22;2803;47.916;8.074;2022-08-25T05:35:31;18.60;99.90
5560;DHT22;2803;47.916;8.074;2022-08-25T05:37:59;18.50;99.90
5560;DHT22;2803;47.916;8.074;2022-08-25T05:40:25;18.60;99.90
5560;DHT22;2803;47.916;8.074;2022-08-25T05:42:52;18.00;99.90
5560;DHT22;2803;47.916;8.074;2022-08-25T05:45:19;18.40;99.90
5560;DHT22;2803;47.916;8.074;2022-08-25T05:47:46;18.40;99.90
5560;DHT22;2803;47.916;8.074;2022-08-25T05:50:13;18.60;99.90
5560;DHT22;2803;47.916;8.074;2022-08-25T05:52:39;18.80;99.90
5560;DHT22;2803;47.916;8.074;2022-08-25T05:55:08;18.90;99.90
5560;DHT22;2803;47.916;8.074;2022-08-25T05:57:35;19.10;99.90
5560;DHT22;2803;47.916;8.074;2022-08-25T06:00:03;19.10;99.90
5560;DHT22;2803;47.916;8.074;2022-08-25T06:02:31;19.30;99.90
5560;DHT22;2803;47.916;8.074;2022-08-25T06:05:13;19.20;99.90
5560;DHT22;2803;47.916;8.074;2022-08-25T06:07:42;19.30;99.90
5560;DHT22;2803;47.916;8.074;2022-08-25T06:10:11;19.30;99.90
5560;DHT22;2803;47.916;8.074;2022-08-25T06:12:39;19.00;99.90
5560;DHT22;2803;47.916;8.074;2022-08-25T06:15:10;18.90;99.90
5560;DHT22;2803;47.916;8.074;2022-08-25T06:17:36;19.20;99.90
5560;DHT22;2803;47.916;8.074;2022-08-25T06:20:06;19.40;99.90
5560;DHT22;2803;47.916;8.074;2022-08-25T06:22:33;19.30;99.90
5560;DHT22;2803;47.916;8.074;2022-08-25T06:25:00;19.50;99.90
5560;DHT22;2803;47.916;8.074;2022-08-25T06:27:28;19.60;99.90
5560;DHT22;2803;47.916;8.074;2022-08-25T06:29:55;19.60;99.90
5560;DHT22;2803;47.916;8.074;2022-08-25T06:32:21;19.70;99.90
5560;DHT22;2803;47.916;8.074;2022-08-25T06:34:48;19.80;99.90
5560;DHT22;2803;47.916;8.074;2022-08-25T06:37:15;20.00;99.90
5560;DHT22;2803;47.916;8.074;2022-08-25T06:39:42;20.10;99.90
5560;DHT22;2803;47.916;8.074;2022-08-25T06:42:08;20.30;99.90
5560;DHT22;2803;47.916;8.074;2022-08-25T06:44:36;20.40;99.90
5560;DHT22;2803;47.916;8.074;2022-08-25T06:47:03;20.50;99.90
5560;DHT22;2803;47.916;8.074;2022-08-25T06:49:30;20.70;99.90
5560;DHT22;2803;47.916;8.074;2022-08-25T06:51:56;20.80;99.90
5560;DHT22;2803;47.916;8.074;2022-08-25T06:54:23;21.00;99.90
5560;DHT22;2803;47.916;8.074;2022-08-25T06:56:50;20.90;99.90
5560;DHT22;2803;47.916;8.074;2022-08-25T06:59:16;21.00;99.90
5560;DHT22;2803;47.916;8.074;2022-08-25T07:01:44;21.10;99.90
5560;DHT22;2803;47.916;8.074;2022-08-25T07:04:11;21.40;99.90
5560;DHT22;2803;47.916;8.074;2022-08-25T07:06:38;21.70;99.90
5560;DHT22;2803;47.916;8.074;2022-08-25T07:09:06;22.00;99.90
5560;DHT22;2803;47.916;8.074;2022-08-25T07:11:33;22.10;99.90
5560;DHT22;2803;47.916;8.074;2022-08-25T07:14:01;22.20;99.90
5560;DHT22;2803;47.916;8.074;2022-08-25T07:16:30;22.20;99.90
5560;DHT22;2803;47.916;8.074;2022-08-25T07:18:58;22.30;99.90
5560;DHT22;2803;47.916;8.074;2022-08-25T07:21:27;22.40;99.90
5560;DHT22;2803;47.916;8.074;2022-08-25T07:23:54;22.80;99.90
5560;DHT22;2803;47.916;8.074;2022-08-25T07:26:25;22.90;99.90
5560;DHT22;2803;47.916;8.074;2022-08-25T07:28:52;23.10;99.90
5560;DHT22;2803;47.916;8.074;2022-08-25T07:31:19;23.00;99.90
5560;DHT22;2803;47.916;8.074;2022-08-25T07:33:46;23.10;99.90
5560;DHT22;2803;47.916;8.074;2022-08-25T07:36:28;23.00;99.90
5560;DHT22;2803;47.916;8.074;2022-08-25T07:38:55;23.30;99.90
5560;DHT22;2803;47.916;8.074;2022-08-25T07:41:25;23.50;99.90
5560;DHT22;2803;47.916;8.074;2022-08-25T07:43:52;23.10;99.90
5560;DHT22;2803;47.916;8.074;2022-08-25T07:46:19;23.30;99.90
5560;DHT22;2803;47.916;8.074;2022-08-25T07:48:46;23.60;99.90
5560;DHT22;2803;47.916;8.074;2022-08-25T07:51:12;24.10;99.90
5560;DHT22;2803;47.916;8.074;2022-08-25T07:53:41;24.40;99.90
5560;DHT22;2803;47.916;8.074;2022-08-25T07:56:09;23.90;99.90
5560;DHT22;2803;47.916;8.074;2022-08-25T07:58:36;24.30;99.90
5560;DHT22;2803;47.916;8.074;2022-08-25T08:01:03;23.90;99.90
5560;DHT22;2803;47.916;8.074;2022-08-25T08:03:30;23.70;99.90
5560;DHT22;2803;47.916;8.074;2022-08-25T08:05:58;23.60;99.90
5560;DHT22;2803;47.916;8.074;2022-08-25T08:08:25;24.00;99.90
5560;DHT22;2803;47.916;8.074;2022-08-25T08:10:54;24.50;99.90
5560;DHT22;2803;47.916;8.074;2022-08-25T08:13:21;24.80;99.90
5560;DHT22;2803;47.916;8.074;2022-08-25T08:15:51;25.00;99.90
5560;DHT22;2803;47.916;8.074;2022-08-25T08:18:17;24.90;99.90
5560;DHT22;2803;47.916;8.074;2022-08-25T08:20:45;24.80;99.90
5560;DHT22;2803;47.916;8.074;2022-08-25T08:23:12;25.10;99.90
5560;DHT22;2803;47.916;8.074;2022-08-25T08:25:38;25.60;99.90
5560;DHT22;2803;47.916;8.074;2022-08-25T08:28:07;25.80;99.90
5560;DHT22;2803;47.916;8.074;2022-08-25T08:30:34;25.60;99.90
5560;DHT22;2803;47.916;8.074;2022-08-25T08:33:01;25.40;99.90
5560;DHT22;2803;47.916;8.074;2022-08-25T08:35:28;25.40;99.90
5560;DHT22;2803;47.916;8.074;2022-08-25T08:37:55;25.70;99.90
5560;DHT22;2803;47.916;8.074;2022-08-25T08:40:21;25.30;99.90
5560;DHT22;2803;47.916;8.074;2022-08-25T08:42:55;25.40;99.90
5560;DHT22;2803;47.916;8.074;2022-08-25T08:45:33;24.90;99.90
5560;DHT22;2803;47.916;8.074;2022-08-25T08:48:18;25.40;99.90
5560;DHT22;2803;47.916;8.074;2022-08-25T08:50:55;25.40;99.90
5560;DHT22;2803;47.916;8.074;2022-08-25T08:53:30;25.70;99.90
5560;DHT22;2803;47.916;8.074;2022-08-25T08:56:00;26.00;99.90
5560;DHT22;2803;47.916;8.074;2022-08-25T08:58:33;25.80;99.90
5560;DHT22;2803;47.916;8.074;2022-08-25T09:01:04;25.80;99.90
5560;DHT22;2803;47.916;8.074;2022-08-25T09:03:34;26.10;99.90
5560;DHT22;2803;47.916;8.074;2022-08-25T09:06:07;26.40;99.90
5560;DHT22;2803;47.916;8.074;2022-08-25T09:08:35;26.60;99.30
5560;DHT22;2803;47.916;8.074;2022-08-25T09:11:08;26.80;98.80
5560;DHT22;2803;47.916;8.074;2022-08-25T09:13:49;26.40;98.90
5560;DHT22;2803;47.916;8.074;2022-08-25T09:16:24;25.80;99.30
5560;DHT22;2803;47.916;8.074;2022-08-25T09:19:19;25.80;99.40
5560;DHT22;2803;47.916;8.074;2022-08-25T09:21:56;25.80;99.00
5560;DHT22;2803;47.916;8.074;2022-08-25T09:24:34;26.50;98.90
5560;DHT22;2803;47.916;8.074;2022-08-25T09:27:11;26.40;98.70
5560;DHT22;2803;47.916;8.074;2022-08-25T09:29:53;27.10;97.90
5560;DHT22;2803;47.916;8.074;2022-08-25T09:32:24;27.40;96.90
5560;DHT22;2803;47.916;8.074;2022-08-25T09:34:53;28.10;96.50
5560;DHT22;2803;47.916;8.074;2022-08-25T09:37:21;28.30;94.90
5560;DHT22;2803;47.916;8.074;2022-08-25T09:39:48;28.30;95.40
5560;DHT22;2803;47.916;8.074;2022-08-25T09:42:17;28.10;94.80
5560;DHT22;2803;47.916;8.074;2022-08-25T09:44:45;28.30;94.10
5560;DHT22;2803;47.916;8.074;2022-08-25T09:47:20;28.20;93.50
5560;DHT22;2803;47.916;8.074;2022-08-25T09:49:50;28.70;93.00
5560;DHT22;2803;47.916;8.074;2022-08-25T09:52:29;29.50;92.50
5560;DHT22;2803;47.916;8.074;2022-08-25T09:54:59;29.80;92.30
5560;DHT22;2803;47.916;8.074;2022-08-25T09:57:29;30.20;91.00
5560;DHT22;2803;47.916;8.074;2022-08-25T09:59:56;30.60;90.00
5560;DHT22;2803;47.916;8.074;2022-08-25T10:02:34;31.20;89.90
5560;DHT22;2803;47.916;8.074;2022-08-25T10:05:16;31.50;86.50
5560;DHT22;2803;47.916;8.074;2022-08-25T10:07:49;31.20;85.60
5560;DHT22;2803;47.916;8.074;2022-08-25T10:10:21;30.80;85.80
5560;DHT22;2803;47.916;8.074;2022-08-25T10:12:48;30.80;84.90
5560;DHT22;2803;47.916;8.074;2022-08-25T10:15:17;31.20;84.30
5560;DHT22;2803;47.916;8.074;2022-08-25T10:17:43;31.40;83.10
5560;DHT22;2803;47.916;8.074;2022-08-25T10:20:17;31.10;84.40
5560;DHT22;2803;47.916;8.074;2022-08-25T10:22:48;32.00;82.60
5560;DHT22;2803;47.916;8.074;2022-08-25T10:25:17;32.60;81.50
5560;DHT22;2803;47.916;8.074;2022-08-25T10:27:50;32.60;81.10
5560;DHT22;2803;47.916;8.074;2022-08-25T10:30:22;33.00;80.10
5560;DHT22;2803;47.916;8.074;2022-08-25T10:33:00;32.80;78.00
5560;DHT22;2803;47.916;8.074;2022-08-25T10:35:33;32.40;79.50
5560;DHT22;2803;47.916;8.074;2022-08-25T10:38:10;33.40;77.60
5560;DHT22;2803;47.916;8.074;2022-08-25T10:40:46;33.30;74.70
5560;DHT22;2803;47.916;8.074;2022-08-25T10:43:23;33.30;76.00
5560;DHT22;2803;47.916;8.074;2022-08-25T10:46:08;33.60;74.90
5560;DHT22;2803;47.916;8.074;2022-08-25T10:48:57;34.10;74.70
5560;DHT22;2803;47.916;8.074;2022-08-25T10:51:35;34.10;73.50
5560;DHT22;2803;47.916;8.074;2022-08-25T10:54:10;33.70;73.30
5560;DHT22;2803;47.916;8.074;2022-08-25T10:56:42;33.60;73.90
5560;DHT22;2803;47.916;8.074;2022-08-25T10:59:22;34.20;72.50
5560;DHT22;2803;47.916;8.074;2022-08-25T11:02:07;34.30;73.30
5560;DHT22;2803;47.916;8.074;2022-08-25T11:04:39;34.60;71.90
5560;DHT22;2803;47.916;8.074;2022-08-25T11:07:11;35.40;73.30
5560;DHT22;2803;47.916;8.074;2022-08-25T11:09:43;35.60;71.50
5560;DHT22;2803;47.916;8.074;2022-08-25T11:12:13;35.90;70.30
5560;DHT22;2803;47.916;8.074;2022-08-25T11:14:46;36.20;70.30
5560;DHT22;2803;47.916;8.074;2022-08-25T11:17:17;35.90;69.30
5560;DHT22;2803;47.916;8.074;2022-08-25T11:19:48;35.50;68.80
5560;DHT22;2803;47.916;8.074;2022-08-25T11:22:22;34.60;69.60
5560;DHT22;2803;47.916;8.074;2022-08-25T11:24:58;34.50;69.70
5560;DHT22;2803;47.916;8.074;2022-08-25T11:27:31;34.70;71.40
5560;DHT22;2803;47.916;8.074;2022-08-25T11:30:05;35.40;69.50
5560;DHT22;2803;47.916;8.074;2022-08-25T11:32:33;36.00;68.10
5560;DHT22;2803;47.916;8.074;2022-08-25T11:35:02;36.70;66.60
5560;DHT22;2803;47.916;8.074;2022-08-25T11:37:31;37.00;65.80
5560;DHT22;2803;47.916;8.074;2022-08-25T11:40:10;37.10;65.00
5560;DHT22;2803;47.916;8.074;2022-08-25T11:42:50;37.50;65.00
5560;DHT22;2803;47.916;8.074;2022-08-25T11:45:38;37.30;64.20
5560;DHT22;2803;47.916;8.074;2022-08-25T11:48:18;37.50;63.40
5560;DHT22;2803;47.916;8.074;2022-08-25T11:50:58;37.40;62.70
5560;DHT22;2803;47.916;8.074;2022-08-25T11:53:29;36.90;63.10
5560;DHT22;2803;47.916;8.074;2022-08-25T11:55:58;37.10;62.70
5560;DHT22;2803;47.916;8.074;2022-08-25T11:58:33;37.30;63.50
5560;DHT22;2803;47.916;8.074;2022-08-25T12:01:04;37.90;61.10
5560;DHT22;2803;47.916;8.074;2022-08-25T12:03:49;37.70;61.50
5560;DHT22;2803;47.916;8.074;2022-08-25T12:06:22;37.80;60.80
5560;DHT22;2803;47.916;8.074;2022-08-25T12:08:53;38.00;60.50
5560;DHT22;2803;47.916;8.074;2022-08-25T12:11:47;38.00;60.30
5560;DHT22;2803;47.916;8.074;2022-08-25T12:14:35;37.80;59.80
5560;DHT22;2803;47.916;8.074;2022-08-25T12:17:11;37.90;60.00
5560;DHT22;2803;47.916;8.074;2022-08-25T12:19:53;38.10;59.10
5560;DHT22;2803;47.916;8.074;2022-08-25T12:22:47;38.00;59.30
5560;DHT22;2803;47.916;8.074;2022-08-25T12:25:30;37.80;58.30
5560;DHT22;2803;47.916;8.074;2022-08-25T12:28:04;36.80;59.90
5560;DHT22;2803;47.916;8.074;2022-08-25T12:30:41;36.50;61.70
5560;DHT22;2803;47.916;8.074;2022-08-25T12:33:19;36.10;60.10
5560;DHT22;2803;47.916;8.074;2022-08-25T12:35:54;35.60;61.50
5560;DHT22;2803;47.916;8.074;2022-08-25T12:38:28;35.50;61.90
5560;DHT22;2803;47.916;8.074;2022-08-25T12:41:00;35.70;62.10
5560;DHT22;2803;47.916;8.074;2022-08-25T12:43:31;35.60;62.20
5560;DHT22;2803;47.916;8.074;2022-08-25T12:48:57;35.40;63.20
5560;DHT22;2803;47.916;8.074;2022-08-25T12:51:26;36.00;63.10
5560;DHT22;2803;47.916;8.074;2022-08-25T12:53:58;36.50;61.80
5560;DHT22;2803;47.916;8.074;2022-08-25T12:56:30;37.00;59.90
5560;DHT22;2803;47.916;8.074;2022-08-25T12:59:10;36.80;61.20
5560;DHT22;2803;47.916;8.074;2022-08-25T13:01:54;36.50;61.50
5560;DHT22;2803;47.916;8.074;2022-08-25T13:04:40;36.60;61.30
5560;DHT22;2803;47.916;8.074;2022-08-25T13:07:20;37.00;60.80
5560;DHT22;2803;47.916;8.074;2022-08-25T13:10:16;36.90;60.40
5560;DHT22;2803;47.916;8.074;2022-08-25T13:12:48;37.10;61.00
5560;DHT22;2803;47.916;8.074;2022-08-25T13:15:30;37.50;59.90
5560;DHT22;2803;47.916;8.074;2022-08-25T13:18:13;37.50;59.80
5560;DHT22;2803;47.916;8.074;2022-08-25T13:20:40;37.00;60.60
5560;DHT22;2803;47.916;8.074;2022-08-25T13:23:07;36.80;60.10
5560;DHT22;2803;47.916;8.074;2022-08-25T13:25:37;36.70;61.90
5560;DHT22;2803;47.916;8.074;2022-08-25T13:28:20;36.80;61.90
5560;DHT22;2803;47.916;8.074;2022-08-25T13:30:55;36.90;61.00
5560;DHT22;2803;47.916;8.074;2022-08-25T13:33:22;36.70;61.20
5560;DHT22;2803;47.916;8.074;2022-08-25T13:35:52;36.90;61.50
5560;DHT22;2803;47.916;8.074;2022-08-25T13:38:39;36.30;61.60
5560;DHT22;2803;47.916;8.074;2022-08-25T13:41:07;36.30;62.70
5560;DHT22;2803;47.916;8.074;2022-08-25T13:43:34;36.00;63.80
5560;DHT22;2803;47.916;8.074;2022-08-25T13:46:03;35.70;63.50
5560;DHT22;2803;47.916;8.074;2022-08-25T13:48:33;34.70;65.40
5560;DHT22;2803;47.916;8.074;2022-08-25T13:51:08;34.00;66.10
5560;DHT22;2803;47.916;8.074;2022-08-25T13:53:35;33.00;68.10
5560;DHT22;2803;47.916;8.074;2022-08-25T13:56:03;32.80;70.30
5560;DHT22;2803;47.916;8.074;2022-08-25T13:58:31;32.90;69.70
5560;DHT22;2803;47.916;8.074;2022-08-25T14:01:06;32.70;68.80
5560;DHT22;2803;47.916;8.074;2022-08-25T14:03:36;32.70;70.40
5560;DHT22;2803;47.916;8.074;2022-08-25T14:06:06;32.50;71.80
5560;DHT22;2803;47.916;8.074;2022-08-25T14:08:36;32.50;71.90
5560;DHT22;2803;47.916;8.074;2022-08-25T14:11:07;32.40;71.10
5560;DHT22;2803;47.916;8.074;2022-08-25T14:13:34;32.70;72.50
5560;DHT22;2803;47.916;8.074;2022-08-25T14:16:12;33.10;72.00
5560;DHT22;2803;47.916;8.074;2022-08-25T14:18:46;33.40;71.10
5560;DHT22;2803;47.916;8.074;2022-08-25T14:21:14;33.50;69.50
5560;DHT22;2803;47.916;8.074;2022-08-25T14:23:41;34.00;67.30
5560;DHT22;2803;47.916;8.074;2022-08-25T14:26:08;34.00;66.10
5560;DHT22;2803;47.916;8.074;2022-08-25T14:28:34;34.20;66.60
5560;DHT22;2803;47.916;8.074;2022-08-25T14:31:04;33.90;67.40
5560;DHT22;2803;47.916;8.074;2022-08-25T14:33:36;33.70;67.40
5560;DHT22;2803;47.916;8.074;2022-08-25T14:36:04;33.00;67.90
5560;DHT22;2803;47.916;8.074;2022-08-25T14:38:31;33.10;70.20
5560;DHT22;2803;47.916;8.074;2022-08-25T14:40:58;33.20;68.20
5560;DHT22;2803;47.916;8.074;2022-08-25T14:43:25;33.90;67.00
5560;DHT22;2803;47.916;8.074;2022-08-25T14:45:52;34.40;64.90
5560;DHT22;2803;47.916;8.074;2022-08-25T14:48:22;34.60;65.30
5560;DHT22;2803;47.916;8.074;2022-08-25T14:50:52;34.50;64.20
5560;DHT22;2803;47.916;8.074;2022-08-25T14:53:19;33.60;63.60
5560;DHT22;2803;47.916;8.074;2022-08-25T14:55:45;33.70;65.40
5560;DHT22;2803;47.916;8.074;2022-08-25T14:58:13;33.70;66.90
5560;DHT22;2803;47.916;8.074;2022-08-25T15:00:42;33.10;66.00
5560;DHT22;2803;47.916;8.074;2022-08-25T15:03:11;32.90;66.40
5560;DHT22;2803;47.916;8.074;2022-08-25T15:05:39;32.80;66.50
5560;DHT22;2803;47.916;8.074;2022-08-25T15:08:08;32.70;66.00
5560;DHT22;2803;47.916;8.074;2022-08-25T15:10:49;32.90;67.20
5560;DHT22;2803;47.916;8.074;2022-08-25T15:13:16;33.40;64.20
5560;DHT22;2803;47.916;8.074;2022-08-25T15:15:43;33.70;65.20
5560;DHT22;2803;47.916;8.074;2022-08-25T15:18:19;34.50;60.40
5560;DHT22;2803;47.916;8.074;2022-08-25T15:20:46;35.10;63.20
5560;DHT22;2803;47.916;8.074;2022-08-25T15:23:14;36.00;61.00
5560;DHT22;2803;47.916;8.074;2022-08-25T15:25:41;36.90;58.60
5560;DHT22;2803;47.916;8.074;2022-08-25T15:28:08;37.60;58.80
5560;DHT22;2803;47.916;8.074;2022-08-25T15:30:35;37.80;56.70
5560;DHT22;2803;47.916;8.074;2022-08-25T15:33:01;37.90;56.70
5560;DHT22;2803;47.916;8.074;2022-08-25T15:35:28;38.20;56.70
5560;DHT22;2803;47.916;8.074;2022-08-25T15:37:55;38.20;55.70
5560;DHT22;2803;47.916;8.074;2022-08-25T15:40:23;38.30;55.00
5560;DHT22;2803;47.916;8.074;2022-08-25T15:42:49;38.50;53.20
5560;DHT22;2803;47.916;8.074;2022-08-25T15:45:16;38.00;54.30
5560;DHT22;2803;47.916;8.074;2022-08-25T15:47:43;37.10;54.60
5560;DHT22;2803;47.916;8.074;2022-08-25T15:50:12;36.70;56.10
5560;DHT22;2803;47.916;8.074;2022-08-25T15:52:40;35.90;56.70
5560;DHT22;2803;47.916;8.074;2022-08-25T15:55:08;35.30;57.60
5560;DHT22;2803;47.916;8.074;2022-08-25T15:57:36;34.60;57.70
5560;DHT22;2803;47.916;8.074;2022-08-25T16:00:05;34.50;57.60
5560;DHT22;2803;47.916;8.074;2022-08-25T16:02:32;34.10;58.10
5560;DHT22;2803;47.916;8.074;2022-08-25T16:04:59;33.90;59.00
5560;DHT22;2803;47.916;8.074;2022-08-25T16:07:25;33.30;59.40
5560;DHT22;2803;47.916;8.074;2022-08-25T16:09:54;32.80;61.00
5560;DHT22;2803;47.916;8.074;2022-08-25T16:12:21;32.70;61.40
5560;DHT22;2803;47.916;8.074;2022-08-25T16:14:49;32.20;60.60
5560;DHT22;2803;47.916;8.074;2022-08-25T16:17:17;32.30;59.40
5560;DHT22;2803;47.916;8.074;2022-08-25T16:19:44;32.10;60.20
5560;DHT22;2803;47.916;8.074;2022-08-25T16:22:10;31.90;59.80
5560;DHT22;2803;47.916;8.074;2022-08-25T16:24:37;31.50;60.80